sensor_id;sensor_type;location;lat;lon;timestamp;pressure;altitude;pressure_sealevel;temperature
82636;BMP280;72317;37.280;-121.948;2024-01-30T00:04:46;100644.13;;;22.00
82636;BMP280;72317;37.280;-121.948;2024-01-30T00:09:47;100616.28;;;21.83
82636;BMP280;72317;37.280;-121.948;2024-01-30T00:14:48;100614.88;;;21.78
82636;BMP280;72317;37.280;-121.948;2024-01-30T00:19:49;100580.84;;;22.05
82636;BMP280;72317;37.280;-121.948;2024-01-30T00:24:50;100616.59;;;22.07
82636;BMP280;72317;37.280;-121.948;2024-01-30T00:29:50;100572.25;;;21.93
82636;BMP280;72317;37.280;-121.948;2024-01-30T00:34:51;100542.56;;;21.74
82636;BMP280;72317;37.280;-121.948;2024-01-30T00:39:52;100542.06;;;21.88
82636;BMP280;72317;37.280;-121.948;2024-01-30T00:44:53;100518.28;;;21.88
82636;BMP280;72317;37.280;-121.948;2024-01-30T00:49:54;100356.06;;;21.71
82636;BMP280;72317;37.280;-121.948;2024-01-30T00:54:55;100416.81;;;21.19
82636;BMP280;72317;37.280;-121.948;2024-01-30T00:59:55;100384.25;;;20.93
82636;BMP280;72317;37.280;-121.948;2024-01-30T01:04:56;100244.47;;;20.75
82636;BMP280;72317;37.280;-121.948;2024-01-30T01:09:57;100188.13;;;20.41
82636;BMP280;72317;37.280;-121.948;2024-01-30T01:14:58;100131.88;;;20.38
82636;BMP280;72317;37.280;-121.948;2024-01-30T01:19:59;100215.19;;;20.22
82636;BMP280;72317;37.280;-121.948;2024-01-30T01:25:00;100155.94;;;20.05
82636;BMP280;72317;37.280;-121.948;2024-01-30T01:30:01;99948.00;;;19.87
82636;BMP280;72317;37.280;-121.948;2024-01-30T01:35:02;99963.34;;;19.81
82636;BMP280;72317;37.280;-121.948;2024-01-30T01:40:03;99979.22;;;19.83
82636;BMP280;72317;37.280;-121.948;2024-01-30T01:45:04;100047.16;;;19.61
82636;BMP280;72317;37.280;-121.948;2024-01-30T01:50:05;100185.88;;;19.57
82636;BMP280;72317;37.280;-121.948;2024-01-30T01:55:07;100097.03;;;19.45
82636;BMP280;72317;37.280;-121.948;2024-01-30T02:00:08;100603.31;;;19.71
82636;BMP280;72317;37.280;-121.948;2024-01-30T02:05:10;100366.91;;;19.55
82636;BMP280;72317;37.280;-121.948;2024-01-30T02:10:11;100487.00;;;19.50
82636;BMP280;72317;37.280;-121.948;2024-01-30T02:15:13;100456.72;;;19.35
82636;BMP280;72317;37.280;-121.948;2024-01-30T02:20:14;100420.47;;;19.25
82636;BMP280;72317;37.280;-121.948;2024-01-30T02:25:15;100451.50;;;19.12
82636;BMP280;72317;37.280;-121.948;2024-01-30T02:30:16;100551.16;;;18.82
82636;BMP280;72317;37.280;-121.948;2024-01-30T02:35:17;100752.47;;;18.81
82636;BMP280;72317;37.280;-121.948;2024-01-30T02:40:17;100749.38;;;18.59
82636;BMP280;72317;37.280;-121.948;2024-01-30T02:45:18;100823.69;;;18.65
82636;BMP280;72317;37.280;-121.948;2024-01-30T02:50:19;100824.91;;;18.41
82636;BMP280;72317;37.280;-121.948;2024-01-30T02:55:20;100786.06;;;18.24
82636;BMP280;72317;37.280;-121.948;2024-01-30T03:00:21;100711.50;;;18.09
82636;BMP280;72317;37.280;-121.948;2024-01-30T03:05:21;100733.81;;;17.96
82636;BMP280;72317;37.280;-121.948;2024-01-30T03:10:22;100762.22;;;17.88
82636;BMP280;72317;37.280;-121.948;2024-01-30T03:15:23;100778.00;;;17.93
82636;BMP280;72317;37.280;-121.948;2024-01-30T03:20:24;100754.69;;;17.73
82636;BMP280;72317;37.280;-121.948;2024-01-30T03:25:25;100814.25;;;17.76
82636;BMP280;72317;37.280;-121.948;2024-01-30T03:30:25;100791.03;;;17.48
82636;BMP280;72317;37.280;-121.948;2024-01-30T03:35:26;100716.41;;;17.44
82636;BMP280;72317;37.280;-121.948;2024-01-30T03:40:27;100700.69;;;17.31
82636;BMP280;72317;37.280;-121.948;2024-01-30T03:45:28;100642.63;;;17.06
82636;BMP280;72317;37.280;-121.948;2024-01-30T03:50:29;100630.03;;;16.92
82636;BMP280;72317;37.280;-121.948;2024-01-30T03:55:29;100659.81;;;16.92
82636;BMP280;72317;37.280;-121.948;2024-01-30T04:00:30;100706.25;;;16.90
82636;BMP280;72317;37.280;-121.948;2024-01-30T04:05:31;100703.25;;;16.81
82636;BMP280;72317;37.280;-121.948;2024-01-30T04:10:32;100663.75;;;16.84
82636;BMP280;72317;37.280;-121.948;2024-01-30T04:15:32;100417.03;;;16.89
82636;BMP280;72317;37.280;-121.948;2024-01-30T04:20:33;100404.66;;;16.64
82636;BMP280;72317;37.280;-121.948;2024-01-30T04:25:34;100378.09;;;16.32
82636;BMP280;72317;37.280;-121.948;2024-01-30T04:30:35;100199.66;;;16.32
82636;BMP280;72317;37.280;-121.948;2024-01-30T04:35:36;100245.50;;;16.16
82636;BMP280;72317;37.280;-121.948;2024-01-30T04:40:36;99951.84;;;15.86
82636;BMP280;72317;37.280;-121.948;2024-01-30T04:45:37;99798.97;;;16.05
82636;BMP280;72317;37.280;-121.948;2024-01-30T04:50:38;99748.16;;;16.00
82636;BMP280;72317;37.280;-121.948;2024-01-30T04:55:39;99836.13;;;16.01
82636;BMP280;72317;37.280;-121.948;2024-01-30T05:00:40;99845.81;;;15.62
82636;BMP280;72317;37.280;-121.948;2024-01-30T05:05:40;100302.44;;;15.75
82636;BMP280;72317;37.280;-121.948;2024-01-30T05:10:41;100660.75;;;15.99
82636;BMP280;72317;37.280;-121.948;2024-01-30T05:15:42;100779.56;;;16.17
82636;BMP280;72317;37.280;-121.948;2024-01-30T05:20:43;100684.09;;;15.83
82636;BMP280;72317;37.280;-121.948;2024-01-30T05:25:44;100632.13;;;15.64
82636;BMP280;72317;37.280;-121.948;2024-01-30T05:30:44;100508.63;;;15.61
82636;BMP280;72317;37.280;-121.948;2024-01-30T05:35:45;100582.22;;;15.72
82636;BMP280;72317;37.280;-121.948;2024-01-30T05:40:46;100581.66;;;15.51
82636;BMP280;72317;37.280;-121.948;2024-01-30T05:45:47;100491.75;;;15.54
82636;BMP280;72317;37.280;-121.948;2024-01-30T05:50:47;100392.44;;;15.31
82636;BMP280;72317;37.280;-121.948;2024-01-30T05:55:48;100240.56;;;15.27
82636;BMP280;72317;37.280;-121.948;2024-01-30T06:00:49;100071.38;;;15.20
82636;BMP280;72317;37.280;-121.948;2024-01-30T06:05:50;99411.75;;;15.37
82636;BMP280;72317;37.280;-121.948;2024-01-30T06:10:51;98580.41;;;15.23
82636;BMP280;72317;37.280;-121.948;2024-01-30T06:15:51;97411.97;;;14.93
82636;BMP280;72317;37.280;-121.948;2024-01-30T06:20:52;96516.34;;;14.45
82636;BMP280;72317;37.280;-121.948;2024-01-30T06:25:53;96071.53;;;14.28
82636;BMP280;72317;37.280;-121.948;2024-01-30T06:30:54;95817.88;;;14.52
82636;BMP280;72317;37.280;-121.948;2024-01-30T06:35:54;95662.50;;;14.52
82636;BMP280;72317;37.280;-121.948;2024-01-30T06:40:55;95802.63;;;14.60
82636;BMP280;72317;37.280;-121.948;2024-01-30T06:45:56;95761.47;;;14.41
82636;BMP280;72317;37.280;-121.948;2024-01-30T06:50:57;95907.72;;;14.49
82636;BMP280;72317;37.280;-121.948;2024-01-30T06:55:58;96123.97;;;14.68
82636;BMP280;72317;37.280;-121.948;2024-01-30T07:00:58;97108.19;;;15.19
82636;BMP280;72317;37.280;-121.948;2024-01-30T07:05:59;97794.16;;;15.27
82636;BMP280;72317;37.280;-121.948;2024-01-30T07:11:00;98044.28;;;15.18
82636;BMP280;72317;37.280;-121.948;2024-01-30T07:16:01;98090.69;;;15.22
82636;BMP280;72317;37.280;-121.948;2024-01-30T07:21:01;98131.34;;;15.18
82636;BMP280;72317;37.280;-121.948;2024-01-30T07:26:23;98082.75;;;15.27
82636;BMP280;72317;37.280;-121.948;2024-01-30T07:31:23;97927.81;;;15.28
82636;BMP280;72317;37.280;-121.948;2024-01-30T07:36:24;97940.34;;;15.07
82636;BMP280;72317;37.280;-121.948;2024-01-30T07:41:25;97918.03;;;15.07
82636;BMP280;72317;37.280;-121.948;2024-01-30T07:46:26;97912.25;;;14.99
82636;BMP280;72317;37.280;-121.948;2024-01-30T07:51:26;97884.06;;;14.76
82636;BMP280;72317;37.280;-121.948;2024-01-30T07:56:27;97506.44;;;14.69
82636;BMP280;72317;37.280;-121.948;2024-01-30T08:01:28;97524.31;;;14.66
82636;BMP280;72317;37.280;-121.948;2024-01-30T08:06:29;97578.25;;;14.57
82636;BMP280;72317;37.280;-121.948;2024-01-30T08:11:29;97450.34;;;14.38
82636;BMP280;72317;37.280;-121.948;2024-01-30T08:16:30;97385.56;;;14.12
82636;BMP280;72317;37.280;-121.948;2024-01-30T08:21:31;97182.66;;;14.09
82636;BMP280;72317;37.280;-121.948;2024-01-30T08:26:32;96847.75;;;14.10
82636;BMP280;72317;37.280;-121.948;2024-01-30T08:31:33;97254.72;;;14.35
82636;BMP280;72317;37.280;-121.948;2024-01-30T08:36:34;97598.81;;;14.31
82636;BMP280;72317;37.280;-121.948;2024-01-30T08:41:35;97710.06;;;14.37
82636;BMP280;72317;37.280;-121.948;2024-01-30T08:46:36;97937.03;;;14.37
82636;BMP280;72317;37.280;-121.948;2024-01-30T08:51:36;97840.31;;;14.25
82636;BMP280;72317;37.280;-121.948;2024-01-30T08:56:37;97739.59;;;13.98
82636;BMP280;72317;37.280;-121.948;2024-01-30T09:01:38;97377.22;;;13.95
82636;BMP280;72317;37.280;-121.948;2024-01-30T09:06:39;97429.59;;;13.85
82636;BMP280;72317;37.280;-121.948;2024-01-30T09:11:40;97483.22;;;13.74
82636;BMP280;72317;37.280;-121.948;2024-01-30T09:16:40;97368.53;;;13.62
82636;BMP280;72317;37.280;-121.948;2024-01-30T09:21:41;97479.84;;;13.64
82636;BMP280;72317;37.280;-121.948;2024-01-30T09:26:42;97164.16;;;13.62
82636;BMP280;72317;37.280;-121.948;2024-01-30T09:31:44;97416.41;;;13.72
82636;BMP280;72317;37.280;-121.948;2024-01-30T09:36:45;97067.25;;;13.56
82636;BMP280;72317;37.280;-121.948;2024-01-30T09:42:00;97228.09;;;13.72
82636;BMP280;72317;37.280;-121.948;2024-01-30T09:47:03;97140.13;;;13.58
82636;BMP280;72317;37.280;-121.948;2024-01-30T09:52:05;97177.44;;;13.50
82636;BMP280;72317;37.280;-121.948;2024-01-30T09:57:06;97080.88;;;13.52
82636;BMP280;72317;37.280;-121.948;2024-01-30T10:02:07;96707.88;;;13.47
82636;BMP280;72317;37.280;-121.948;2024-01-30T10:07:10;96847.94;;;13.29
82636;BMP280;72317;37.280;-121.948;2024-01-30T10:12:12;96690.69;;;13.39
82636;BMP280;72317;37.280;-121.948;2024-01-30T10:17:12;96720.75;;;13.38
82636;BMP280;72317;37.280;-121.948;2024-01-30T10:22:14;96852.38;;;13.12
82636;BMP280;72317;37.280;-121.948;2024-01-30T10:27:14;96826.25;;;13.12
82636;BMP280;72317;37.280;-121.948;2024-01-30T10:32:15;96823.69;;;13.03
82636;BMP280;72317;37.280;-121.948;2024-01-30T10:37:19;96838.22;;;13.11
82636;BMP280;72317;37.280;-121.948;2024-01-30T10:42:25;96559.63;;;12.65
82636;BMP280;72317;37.280;-121.948;2024-01-30T10:47:29;96185.50;;;12.63
82636;BMP280;72317;37.280;-121.948;2024-01-30T10:52:32;95586.19;;;12.74
82636;BMP280;72317;37.280;-121.948;2024-01-30T10:57:34;95332.25;;;12.70
82636;BMP280;72317;37.280;-121.948;2024-01-30T11:02:37;95005.16;;;12.67
82636;BMP280;72317;37.280;-121.948;2024-01-30T11:07:40;94943.59;;;13.01
82636;BMP280;72317;37.280;-121.948;2024-01-30T11:12:41;94907.34;;;12.81
82636;BMP280;72317;37.280;-121.948;2024-01-30T11:22:53;94773.19;;;12.68
82636;BMP280;72317;37.280;-121.948;2024-01-30T11:27:55;94789.72;;;12.72
82636;BMP280;72317;37.280;-121.948;2024-01-30T11:33:06;94818.50;;;12.72
82636;BMP280;72317;37.280;-121.948;2024-01-30T11:38:08;94830.56;;;12.78
82636;BMP280;72317;37.280;-121.948;2024-01-30T11:43:09;94851.44;;;12.72
82636;BMP280;72317;37.280;-121.948;2024-01-30T11:48:12;94853.38;;;12.72
82636;BMP280;72317;37.280;-121.948;2024-01-30T11:53:13;94585.59;;;12.91
82636;BMP280;72317;37.280;-121.948;2024-01-30T11:58:14;94614.53;;;12.85
82636;BMP280;72317;37.280;-121.948;2024-01-30T12:03:14;94770.69;;;12.70
82636;BMP280;72317;37.280;-121.948;2024-01-30T12:08:16;94958.94;;;12.74
82636;BMP280;72317;37.280;-121.948;2024-01-30T12:13:16;95047.34;;;12.85
82636;BMP280;72317;37.280;-121.948;2024-01-30T12:18:20;95155.44;;;12.67
82636;BMP280;72317;37.280;-121.948;2024-01-30T12:23:21;95240.44;;;12.78
82636;BMP280;72317;37.280;-121.948;2024-01-30T12:28:22;95259.88;;;12.65
82636;BMP280;72317;37.280;-121.948;2024-01-30T12:33:26;95254.75;;;12.86
82636;BMP280;72317;37.280;-121.948;2024-01-30T12:38:27;95270.31;;;12.87
82636;BMP280;72317;37.280;-121.948;2024-01-30T12:43:29;95279.56;;;12.92
82636;BMP280;72317;37.280;-121.948;2024-01-30T12:48:30;95308.56;;;12.93
82636;BMP280;72317;37.280;-121.948;2024-01-30T12:53:30;95330.97;;;12.77
82636;BMP280;72317;37.280;-121.948;2024-01-30T12:58:31;95328.72;;;12.81
82636;BMP280;72317;37.280;-121.948;2024-01-30T13:03:32;95336.34;;;12.77
82636;BMP280;72317;37.280;-121.948;2024-01-30T13:08:33;95309.75;;;12.98
82636;BMP280;72317;37.280;-121.948;2024-01-30T13:13:34;95282.84;;;13.04
82636;BMP280;72317;37.280;-121.948;2024-01-30T13:18:35;95256.41;;;13.08
82636;BMP280;72317;37.280;-121.948;2024-01-30T13:23:35;95321.28;;;12.68
82636;BMP280;72317;37.280;-121.948;2024-01-30T13:28:36;95300.22;;;12.78
82636;BMP280;72317;37.280;-121.948;2024-01-30T13:33:37;95290.00;;;12.77
82636;BMP280;72317;37.280;-121.948;2024-01-30T13:38:38;95309.84;;;12.68
82636;BMP280;72317;37.280;-121.948;2024-01-30T13:43:39;95299.31;;;12.70
82636;BMP280;72317;37.280;-121.948;2024-01-30T13:48:39;95283.81;;;12.82
82636;BMP280;72317;37.280;-121.948;2024-01-30T13:53:40;95273.75;;;12.88
82636;BMP280;72317;37.280;-121.948;2024-01-30T13:58:41;95283.25;;;12.89
82636;BMP280;72317;37.280;-121.948;2024-01-30T14:03:42;95292.34;;;12.86
82636;BMP280;72317;37.280;-121.948;2024-01-30T14:08:42;95331.75;;;12.72
82636;BMP280;72317;37.280;-121.948;2024-01-30T14:13:43;95340.47;;;12.78
82636;BMP280;72317;37.280;-121.948;2024-01-30T14:18:44;95340.25;;;12.76
82636;BMP280;72317;37.280;-121.948;2024-01-30T14:23:45;95365.19;;;12.71
82636;BMP280;72317;37.280;-121.948;2024-01-30T14:28:46;95341.41;;;12.81
82636;BMP280;72317;37.280;-121.948;2024-01-30T14:33:46;95364.41;;;12.76
82636;BMP280;72317;37.280;-121.948;2024-01-30T14:38:47;95367.88;;;12.71
82636;BMP280;72317;37.280;-121.948;2024-01-30T14:43:48;95374.75;;;12.66
82636;BMP280;72317;37.280;-121.948;2024-01-30T14:48:49;95377.00;;;12.57
82636;BMP280;72317;37.280;-121.948;2024-01-30T14:53:50;95391.91;;;12.52
82636;BMP280;72317;37.280;-121.948;2024-01-30T14:58:51;95383.44;;;12.48
82636;BMP280;72317;37.280;-121.948;2024-01-30T15:03:51;95395.16;;;12.45
82636;BMP280;72317;37.280;-121.948;2024-01-30T15:08:52;95366.94;;;12.38
82636;BMP280;72317;37.280;-121.948;2024-01-30T15:13:53;95411.94;;;12.21
82636;BMP280;72317;37.280;-121.948;2024-01-30T15:18:54;95425.91;;;12.08
82636;BMP280;72317;37.280;-121.948;2024-01-30T15:23:55;95364.03;;;12.36
82636;BMP280;72317;37.280;-121.948;2024-01-30T15:28:55;95347.88;;;12.42
82636;BMP280;72317;37.280;-121.948;2024-01-30T15:33:56;95273.47;;;12.48
82636;BMP280;72317;37.280;-121.948;2024-01-30T15:38:57;95274.41;;;12.51
82636;BMP280;72317;37.280;-121.948;2024-01-30T15:43:58;95216.56;;;12.74
82636;BMP280;72317;37.280;-121.948;2024-01-30T15:48:58;95021.41;;;12.88
82636;BMP280;72317;37.280;-121.948;2024-01-30T15:53:59;94910.88;;;13.03
82636;BMP280;72317;37.280;-121.948;2024-01-30T15:59:00;94849.94;;;13.24
82636;BMP280;72317;37.280;-121.948;2024-01-30T16:04:01;94853.16;;;13.22
82636;BMP280;72317;37.280;-121.948;2024-01-30T16:09:01;94774.78;;;13.45
82636;BMP280;72317;37.280;-121.948;2024-01-30T16:14:02;94734.44;;;13.37
82636;BMP280;72317;37.280;-121.948;2024-01-30T16:19:03;94749.28;;;13.38
82636;BMP280;72317;37.280;-121.948;2024-01-30T16:24:04;94755.59;;;13.62
82636;BMP280;72317;37.280;-121.948;2024-01-30T16:29:05;94719.16;;;13.74
82636;BMP280;72317;37.280;-121.948;2024-01-30T16:34:06;94646.47;;;13.87
82636;BMP280;72317;37.280;-121.948;2024-01-30T16:39:07;94575.41;;;14.03
82636;BMP280;72317;37.280;-121.948;2024-01-30T16:44:08;94467.94;;;14.26
82636;BMP280;72317;37.280;-121.948;2024-01-30T16:49:08;94488.19;;;14.27
82636;BMP280;72317;37.280;-121.948;2024-01-30T16:54:10;94471.53;;;14.51
82636;BMP280;72317;37.280;-121.948;2024-01-30T16:59:11;94578.75;;;14.32
82636;BMP280;72317;37.280;-121.948;2024-01-30T17:04:12;94593.34;;;14.44
82636;BMP280;72317;37.280;-121.948;2024-01-30T17:09:12;94638.44;;;14.23
82636;BMP280;72317;37.280;-121.948;2024-01-30T17:14:13;94672.09;;;14.16
82636;BMP280;72317;37.280;-121.948;2024-01-30T17:19:14;94682.41;;;14.26
82636;BMP280;72317;37.280;-121.948;2024-01-30T17:24:15;94663.22;;;14.29
82636;BMP280;72317;37.280;-121.948;2024-01-30T17:29:15;94660.19;;;14.40
82636;BMP280;72317;37.280;-121.948;2024-01-30T17:34:16;94589.59;;;14.70
82636;BMP280;72317;37.280;-121.948;2024-01-30T17:39:18;94422.19;;;15.50
82636;BMP280;72317;37.280;-121.948;2024-01-30T17:44:18;94332.69;;;15.84
82636;BMP280;72317;37.280;-121.948;2024-01-30T17:49:19;94202.75;;;16.47
82636;BMP280;72317;37.280;-121.948;2024-01-30T17:54:20;94182.47;;;16.46
82636;BMP280;72317;37.280;-121.948;2024-01-30T17:59:21;94169.19;;;16.58
82636;BMP280;72317;37.280;-121.948;2024-01-30T18:04:21;94275.53;;;17.16
82636;BMP280;72317;37.280;-121.948;2024-01-30T18:09:23;95177.88;;;18.71
82636;BMP280;72317;37.280;-121.948;2024-01-30T18:14:24;99233.44;;;18.78
82636;BMP280;72317;37.280;-121.948;2024-01-30T18:19:25;99040.47;;;18.43
82636;BMP280;72317;37.280;-121.948;2024-01-30T18:24:26;99420.34;;;19.58
82636;BMP280;72317;37.280;-121.948;2024-01-30T18:29:26;100946.81;;;26.59
82636;BMP280;72317;37.280;-121.948;2024-01-30T18:34:27;101149.03;;;30.17
82636;BMP280;72317;37.280;-121.948;2024-01-30T18:39:28;101173.34;;;30.02
82636;BMP280;72317;37.280;-121.948;2024-01-30T18:44:29;101133.91;;;26.79
82636;BMP280;72317;37.280;-121.948;2024-01-30T18:49:30;101188.88;;;31.63
82636;BMP280;72317;37.280;-121.948;2024-01-30T18:54:30;101170.13;;;30.63
82636;BMP280;72317;37.280;-121.948;2024-01-30T18:59:31;101148.44;;;26.95
82636;BMP280;72317;37.280;-121.948;2024-01-30T19:04:32;101198.91;;;34.12
82636;BMP280;72317;37.280;-121.948;2024-01-30T19:09:33;101226.53;;;38.46
82636;BMP280;72317;37.280;-121.948;2024-01-30T19:14:33;101171.44;;;35.09
82636;BMP280;72317;37.280;-121.948;2024-01-30T19:19:34;101077.72;;;25.39
82636;BMP280;72317;37.280;-121.948;2024-01-30T19:24:35;101082.75;;;29.80
82636;BMP280;72317;37.280;-121.948;2024-01-30T19:29:36;101146.41;;;32.70
82636;BMP280;72317;37.280;-121.948;2024-01-30T19:34:36;101085.94;;;34.91
82636;BMP280;72317;37.280;-121.948;2024-01-30T19:39:37;101062.41;;;30.37
82636;BMP280;72317;37.280;-121.948;2024-01-30T19:44:38;100989.66;;;25.10
82636;BMP280;72317;37.280;-121.948;2024-01-30T19:49:40;100979.78;;;27.47
82636;BMP280;72317;37.280;-121.948;2024-01-30T19:54:40;101089.28;;;35.03
82636;BMP280;72317;37.280;-121.948;2024-01-30T19:59:41;101069.97;;;40.67
82636;BMP280;72317;37.280;-121.948;2024-01-30T20:04:42;101072.41;;;42.24
82636;BMP280;72317;37.280;-121.948;2024-01-30T20:09:43;100972.69;;;31.05
82636;BMP280;72317;37.280;-121.948;2024-01-30T20:14:44;100932.66;;;26.51
82636;BMP280;72317;37.280;-121.948;2024-01-30T20:19:44;100915.84;;;24.52
82636;BMP280;72317;37.280;-121.948;2024-01-30T20:24:45;100930.41;;;26.79
82636;BMP280;72317;37.280;-121.948;2024-01-30T20:29:46;100928.03;;;27.51
82636;BMP280;72317;37.280;-121.948;2024-01-30T20:34:47;100889.06;;;24.56
82636;BMP280;72317;37.280;-121.948;2024-01-30T20:39:48;100878.53;;;24.82
82636;BMP280;72317;37.280;-121.948;2024-01-30T20:44:48;100878.72;;;24.69
82636;BMP280;72317;37.280;-121.948;2024-01-30T20:49:50;100865.47;;;24.31
82636;BMP280;72317;37.280;-121.948;2024-01-30T20:54:51;100836.41;;;23.88
82636;BMP280;72317;37.280;-121.948;2024-01-30T20:59:52;100831.22;;;24.08
82636;BMP280;72317;37.280;-121.948;2024-01-30T21:04:52;100829.00;;;23.57
82636;BMP280;72317;37.280;-121.948;2024-01-30T21:09:53;100807.88;;;23.40
82636;BMP280;72317;37.280;-121.948;2024-01-30T21:14:54;100803.06;;;24.62
82636;BMP280;72317;37.280;-121.948;2024-01-30T21:19:55;100801.56;;;24.34
82636;BMP280;72317;37.280;-121.948;2024-01-30T21:24:55;100804.22;;;24.80
82636;BMP280;72317;37.280;-121.948;2024-01-30T21:29:56;100805.22;;;25.33
82636;BMP280;72317;37.280;-121.948;2024-01-30T21:34:57;100795.31;;;25.36
82636;BMP280;72317;37.280;-121.948;2024-01-30T21:40:18;100794.16;;;25.19
82636;BMP280;72317;37.280;-121.948;2024-01-30T21:45:18;100797.81;;;25.72
82636;BMP280;72317;37.280;-121.948;2024-01-30T21:50:19;100804.75;;;25.59
82636;BMP280;72317;37.280;-121.948;2024-01-30T21:55:20;100805.81;;;24.53
82636;BMP280;72317;37.280;-121.948;2024-01-30T22:00:21;100805.22;;;23.76
82636;BMP280;72317;37.280;-121.948;2024-01-30T22:05:22;100812.53;;;24.07
82636;BMP280;72317;37.280;-121.948;2024-01-30T22:10:23;100818.78;;;23.30
82636;BMP280;72317;37.280;-121.948;2024-01-30T22:15:23;100809.00;;;22.68
82636;BMP280;72317;37.280;-121.948;2024-01-30T22:20:24;100821.97;;;22.33
82636;BMP280;72317;37.280;-121.948;2024-01-30T22:25:25;100809.94;;;22.30
82636;BMP280;72317;37.280;-121.948;2024-01-30T22:30:26;100804.59;;;22.05
82636;BMP280;72317;37.280;-121.948;2024-01-30T22:35:27;100799.94;;;21.80
82636;BMP280;72317;37.280;-121.948;2024-01-30T22:40:27;100785.09;;;21.30
82636;BMP280;72317;37.280;-121.948;2024-01-30T22:45:28;100774.09;;;21.34
82636;BMP280;72317;37.280;-121.948;2024-01-30T22:50:29;100786.22;;;21.07
82636;BMP280;72317;37.280;-121.948;2024-01-30T22:55:30;100781.06;;;20.68
82636;BMP280;72317;37.280;-121.948;2024-01-30T23:00:30;100771.56;;;20.31
82636;BMP280;72317;37.280;-121.948;2024-01-30T23:05:31;100775.22;;;20.40
82636;BMP280;72317;37.280;-121.948;2024-01-30T23:10:32;100784.13;;;20.70
82636;BMP280;72317;37.280;-121.948;2024-01-30T23:15:33;100775.19;;;20.56
82636;BMP280;72317;37.280;-121.948;2024-01-30T23:20:33;100773.44;;;20.34
82636;BMP280;72317;37.280;-121.948;2024-01-30T23:25:34;100774.19;;;20.05
82636;BMP280;72317;37.280;-121.948;2024-01-30T23:30:35;100783.19;;;19.86
82636;BMP280;72317;37.280;-121.948;2024-01-30T23:35:36;100783.06;;;19.41
82636;BMP280;72317;37.280;-121.948;2024-01-30T23:40:36;100766.19;;;19.30
82636;BMP280;72317;37.280;-121.948;2024-01-30T23:45:37;100763.16;;;19.27
82636;BMP280;72317;37.280;-121.948;2024-01-30T23:50:38;100762.41;;;19.43
82636;BMP280;72317;37.280;-121.948;2024-01-30T23:55:39;100750.00;;;19.42
